Terminal Aerodrome Forecast
Issued by NWS

Home | Current Version | Previous Version | Text Only | Print | Product List | Glossary On
Versions: 1 2 3 4 5 6 7 8 9 10 11 12 13 14 15 16 17 18 19 20
000
FTUS46 KSGX 040546
TAFCRQ
TAF
KCRQ 040546Z 0406/0506 VRB03KT P6SM SCT022
     FM040700 VRB03KT P6SM BKN022
     FM041400 VRB05KT P6SM OVC030
     FM041900 24010KT P6SM BKN035
     FM050200 VRB05KT P6SM BKN030=

USA.gov is the U.S. government's official web portal to all federal, state and local government web resources and services.